Time;durP1;ratioP1;P1;durP2;ratioP2;P2;SDS_P1;SDS_P2;PMS_P1;PMS_P2;Temp;Humidity;BMP_temperature;BMP_pressure;BME280_temperature;BME280_humidity;BME280_pressure;Samples;Min_cycle;Max_cycle;Signal;HPM_P1;HPM_P2
2023/08/09 00:02:04;;;;;;;;;3.00;1.33;;;;;-146.67;100.00;57155.34;6359902;22;8851;-77
2023/08/09 00:04:30;;;;;;;;;2.00;1.00;;;;;-146.67;100.00;57155.34;6386551;22;9851;-77
2023/08/09 00:06:56;;;;;;;;;3.00;2.00;;;;;-146.67;100.00;57155.34;6359232;22;8796;-77
2023/08/09 00:09:21;;;;;;;;;2.00;1.67;;;;;-146.67;100.00;57155.34;6361867;22;8730;-77
2023/08/09 00:11:47;;;;;;;;;2.00;2.00;;;;;-146.67;100.00;57155.34;6386874;22;9577;-77
2023/08/09 00:14:12;;;;;;;;;3.00;2.00;;;;;-146.67;100.00;57155.34;6360249;22;10148;-77
2023/08/09 00:16:38;;;;;;;;;2.00;2.00;;;;;-146.67;100.00;57155.34;6362512;22;8757;-77
2023/08/09 00:19:04;;;;;;;;;3.00;1.00;;;;;-146.67;100.00;57155.34;6360018;22;8765;-77
2023/08/09 00:21:31;;;;;;;;;3.00;1.00;;;;;-146.67;100.00;57155.34;6385740;22;8745;-77
2023/08/09 00:23:57;;;;;;;;;2.00;2.00;;;;;-146.67;100.00;57155.34;6385760;22;10272;-77
2023/08/09 00:26:22;;;;;;;;;2.00;2.00;;;;;-146.67;100.00;57155.34;6362431;22;9351;-77
2023/08/09 00:28:48;;;;;;;;;1.00;1.00;;;;;-146.67;100.00;57155.34;6362448;22;8926;-77
2023/08/09 00:31:13;;;;;;;;;2.67;2.00;;;;;-146.67;100.00;57155.34;6361788;22;8729;-77
2023/08/09 00:33:38;;;;;;;;;3.00;3.00;;;;;-146.67;100.00;57155.34;6360018;22;9818;-76
2023/08/09 00:36:04;;;;;;;;;1.33;1.00;;;;;-146.67;100.00;57155.34;6386177;22;8744;-77
2023/08/09 00:38:29;;;;;;;;;1.67;1.67;;;;;-146.67;100.00;57155.34;6360204;22;9257;-77
2023/08/09 00:40:55;;;;;;;;;2.00;0.67;;;;;-146.67;100.00;57155.34;6359950;22;8781;-77
2023/08/09 00:43:20;;;;;;;;;2.33;2.33;;;;;-146.67;100.00;57155.34;6361799;22;8776;-77
2023/08/09 00:45:47;;;;;;;;;3.00;1.00;;;;;-146.67;100.00;57155.34;6360103;22;8845;-77
2023/08/09 00:48:13;;;;;;;;;1.00;1.00;;;;;-146.67;100.00;57155.34;6386490;22;8689;-77
2023/08/09 00:50:40;;;;;;;;;1.00;1.00;;;;;-146.67;100.00;57155.34;6359211;22;9449;-77
2023/08/09 00:53:06;;;;;;;;;2.00;2.00;;;;;-146.67;100.00;57155.34;6361652;22;8725;-77
2023/08/09 00:55:31;;;;;;;;;4.00;3.00;;;;;-146.67;100.00;57155.34;6361986;22;9431;-77
2023/08/09 00:57:57;;;;;;;;;3.00;1.00;;;;;-146.67;100.00;57155.34;6362428;22;9409;-77
2023/08/09 01:00:22;;;;;;;;;1.50;1.50;;;;;-146.67;100.00;57155.34;6386214;22;8765;-76
2023/08/09 01:02:48;;;;;;;;;2.33;2.00;;;;;-146.67;100.00;57155.34;6361566;22;8787;-77
2023/08/09 01:05:13;;;;;;;;;1.00;1.00;;;;;-146.67;100.00;57155.34;6361544;22;8733;-76
2023/08/09 01:07:53;;;;;;;;;1.75;1.75;;;;;-146.67;100.00;57155.34;6359760;22;8786;-77
2023/08/09 01:10:30;;;;;;;;;1.50;1.50;;;;;-146.67;100.00;57155.34;6359110;22;9641;-76
2023/08/09 01:13:03;;;;;;;;;1.50;1.00;;;;;-146.67;100.00;57155.34;6361652;22;9660;-76
2023/08/09 01:15:33;;;;;;;;;2.00;2.00;;;;;-146.67;100.00;57155.34;6362084;22;10584;-77
2023/08/09 01:18:01;;;;;;;;;0.75;0.75;;;;;-146.67;100.00;57155.34;6362494;22;9363;-77
2023/08/09 01:20:26;;;;;;;;;3.00;1.67;;;;;-146.67;100.00;57155.34;6359217;22;9406;-77
2023/08/09 01:23:00;;;;;;;;;1.00;1.00;;;;;-146.67;100.00;57155.34;6360789;22;10787;-77
2023/08/09 01:25:25;;;;;;;;;2.25;1.25;;;;;-146.67;100.00;57155.34;6360337;22;8741;-77
2023/08/09 01:27:51;;;;;;;;;3.00;2.00;;;;;-146.67;100.00;57155.34;6363420;22;9528;-77
2023/08/09 01:30:17;;;;;;;;;2.00;2.00;;;;;-146.67;100.00;57155.34;6361303;22;8780;-77
2023/08/09 01:32:43;;;;;;;;;2.00;1.00;;;;;-146.67;100.00;57155.34;6363026;22;10084;-76
2023/08/09 01:35:09;;;;;;;;;2.00;2.00;;;;;-146.67;100.00;57155.34;6361084;22;8753;-77
2023/08/09 01:37:54;;;;;;;;;2.75;1.25;;;;;-146.67;100.00;57155.34;6361228;22;9172;-77
2023/08/09 01:40:21;;;;;;;;;2.00;2.00;;;;;-146.67;100.00;57155.34;6361871;22;9576;-77
2023/08/09 01:42:49;;;;;;;;;2.00;2.00;;;;;-146.67;100.00;57155.34;6361410;22;9991;-77
2023/08/09 01:45:17;;;;;;;;;2.00;2.00;;;;;-146.67;100.00;57155.34;6361833;22;9630;-77
2023/08/09 01:47:43;;;;;;;;;3.75;2.00;;;;;-146.67;100.00;57155.34;6363070;22;9668;-77
2023/08/09 01:50:37;;;;;;;;;1.00;1.00;;;;;-146.67;100.00;57155.34;6360823;22;9521;-77
2023/08/09 01:53:03;;;;;;;;;3.75;1.00;;;;;-146.67;100.00;57155.34;6366206;22;9890;-77
2023/08/09 01:55:29;;;;;;;;;2.50;1.50;;;;;-146.67;100.00;57155.34;6361890;22;9541;-77
2023/08/09 01:57:55;;;;;;;;;2.00;2.00;;;;;-146.67;100.00;57155.34;6363665;22;8721;-77
2023/08/09 02:00:24;;;;;;;;;4.00;2.50;;;;;-146.67;100.00;57155.34;6387527;22;9473;-77
2023/08/09 02:02:51;;;;;;;;;1.00;1.00;;;;;-146.67;100.00;57155.34;6360372;22;9975;-77
2023/08/09 02:05:17;;;;;;;;;3.00;1.75;;;;;-146.67;100.00;57155.34;6362908;22;9294;-77
2023/08/09 02:07:43;;;;;;;;;2.00;2.00;;;;;-146.67;100.00;57155.34;6363462;22;9502;-77
2023/08/09 02:10:10;;;;;;;;;1.00;1.00;;;;;-146.67;100.00;57155.34;6363001;22;9455;-77
2023/08/09 02:12:37;;;;;;;;;3.50;2.00;;;;;-146.67;100.00;57155.34;6363016;22;8906;-76
2023/08/09 02:15:02;;;;;;;;;1.00;1.00;;;;;-146.67;100.00;57155.34;6363053;22;9430;-77
2023/08/09 02:17:28;;;;;;;;;2.00;2.00;;;;;-146.67;100.00;57155.34;6360399;22;9530;-75
2023/08/09 02:19:54;;;;;;;;;4.00;1.75;;;;;-146.67;100.00;57155.34;6386596;22;8764;-74
2023/08/09 02:22:19;;;;;;;;;3.67;0.67;;;;;-146.67;100.00;57155.34;6360479;22;9951;-74
2023/08/09 02:24:45;;;;;;;;;1.75;1.75;;;;;-146.67;100.00;57155.34;6362555;22;9430;-74
2023/08/09 02:27:10;;;;;;;;;2.00;1.00;;;;;-146.67;100.00;57155.34;6361051;22;8741;-74
2023/08/09 02:29:36;;;;;;;;;2.75;1.00;;;;;-146.67;100.00;57155.34;6362829;22;8741;-74
2023/08/09 02:32:02;;;;;;;;;2.25;1.25;;;;;-146.67;100.00;57155.34;6360394;22;9796;-74
2023/08/09 02:34:28;;;;;;;;;2.00;2.00;;;;;-146.67;100.00;57155.34;6363145;22;8826;-74
2023/08/09 02:36:54;;;;;;;;;1.00;1.00;;;;;-146.67;100.00;57155.34;6387128;22;10238;-74
2023/08/09 02:39:20;;;;;;;;;1.00;1.00;;;;;-146.67;100.00;57155.34;6360522;22;8698;-74
2023/08/09 02:41:46;;;;;;;;;1.25;1.25;;;;;-146.67;100.00;57155.34;6362616;22;9633;-74
2023/08/09 02:44:12;;;;;;;;;1.00;1.00;;;;;-146.67;100.00;57155.34;6360922;22;8834;-74
2023/08/09 02:46:37;;;;;;;;;1.50;1.00;;;;;-146.67;100.00;57155.34;6362486;22;8744;-74
2023/08/09 02:49:03;;;;;;;;;2.00;1.00;;;;;-146.67;100.00;57155.34;6362906;22;8753;-74
2023/08/09 02:51:28;;;;;;;;;1.50;0.00;;;;;-146.67;100.00;57155.34;6362168;22;8746;-74
2023/08/09 02:54:02;;;;;;;;;3.00;1.00;;;;;-146.67;100.00;57155.34;6386801;22;8836;-74
2023/08/09 02:56:28;;;;;;;;;1.00;1.00;;;;;-146.67;100.00;57155.34;6362895;22;8689;-74
2023/08/09 02:58:54;;;;;;;;;1.00;1.00;;;;;-146.67;100.00;57155.34;6360745;22;9456;-74
2023/08/09 03:01:21;;;;;;;;;1.00;1.00;;;;;-146.67;100.00;57155.34;6362501;22;9660;-74
2023/08/09 03:03:48;;;;;;;;;2.25;1.00;;;;;-146.67;100.00;57155.34;6360332;22;9772;-74
2023/08/09 03:06:14;;;;;;;;;0.33;0.33;;;;;-146.67;100.00;57155.34;6360662;22;9468;-74
2023/08/09 03:08:39;;;;;;;;;1.00;1.00;;;;;-146.67;100.00;57155.34;6362727;22;9437;-74
2023/08/09 03:11:05;;;;;;;;;2.00;0.75;;;;;-146.67;100.00;57155.34;6361412;22;8818;-74
2023/08/09 03:13:30;;;;;;;;;1.00;1.00;;;;;-146.67;100.00;57155.34;6362753;22;8775;-74
2023/08/09 03:15:56;;;;;;;;;2.00;2.00;;;;;-146.67;100.00;57155.34;6362022;22;8725;-74
2023/08/09 03:18:21;;;;;;;;;1.25;1.25;;;;;-146.67;100.00;57155.34;6362837;22;8759;-74
2023/08/09 03:20:47;;;;;;;;;2.67;1.00;;;;;-146.67;100.00;57155.34;6361150;22;8760;-74
2023/08/09 03:23:12;;;;;;;;;0.50;0.50;;;;;-146.67;100.00;57155.34;6360469;22;8822;-74
2023/08/09 03:25:37;;;;;;;;;0.25;0.25;;;;;-146.67;100.00;57155.34;6361964;22;8741;-74
2023/08/09 03:28:03;;;;;;;;;1.00;1.00;;;;;-146.67;100.00;57155.34;6386832;22;8855;-74
2023/08/09 03:30:29;;;;;;;;;1.00;1.00;;;;;-146.67;100.00;57155.34;6362498;22;8756;-74
2023/08/09 03:32:54;;;;;;;;;0.00;0.00;;;;;-146.67;100.00;57155.34;6360523;22;8753;-74
2023/08/09 03:35:20;;;;;;;;;2.00;0.00;;;;;-146.67;100.00;57155.34;6362721;22;8729;-74
2023/08/09 03:37:45;;;;;;;;;0.75;0.75;;;;;-146.67;100.00;57155.34;6362921;22;8741;-74
2023/08/09 03:40:12;;;;;;;;;0.00;0.00;;;;;-146.67;100.00;57155.34;6360074;22;10114;-74
2023/08/09 03:42:40;;;;;;;;;0.00;0.00;;;;;-146.67;100.00;57155.34;6362129;22;8744;-74
2023/08/09 03:45:06;;;;;;;;;1.75;0.25;;;;;-146.67;100.00;57155.34;6362414;22;9372;-74
2023/08/09 03:47:32;;;;;;;;;0.00;0.00;;;;;-146.67;100.00;57155.34;6363053;22;9611;-74
2023/08/09 03:49:58;;;;;;;;;1.00;1.00;;;;;-146.67;100.00;57155.34;6386361;22;10071;-74
2023/08/09 03:52:23;;;;;;;;;1.25;1.00;;;;;-146.67;100.00;57155.34;6363012;22;8871;-74
2023/08/09 03:54:52;;;;;;;;;1.00;1.00;;;;;-146.67;100.00;57155.34;6386557;22;8745;-74
2023/08/09 03:57:18;;;;;;;;;1.00;1.00;;;;;-146.67;100.00;57155.34;6361899;22;8779;-74
2023/08/09 03:59:43;;;;;;;;;0.75;0.25;;;;;-146.67;100.00;57155.34;6386051;22;10084;-74
2023/08/09 04:02:08;;;;;;;;;2.00;1.00;;;;;-146.67;100.00;57155.34;6362011;22;9573;-74
2023/08/09 04:04:34;;;;;;;;;2.50;1.00;;;;;-146.67;100.00;57155.34;6362334;22;8788;-74
2023/08/09 04:07:00;;;;;;;;;0.25;0.25;;;;;-146.67;100.00;57155.34;6360168;22;8732;-74
2023/08/09 04:09:26;;;;;;;;;0.00;0.00;;;;;-146.67;100.00;57155.34;6386285;22;9808;-74
2023/08/09 04:11:52;;;;;;;;;1.00;1.00;;;;;-146.67;100.00;57155.34;6387027;22;8914;-74
2023/08/09 04:14:19;;;;;;;;;1.00;1.00;;;;;-146.67;100.00;57155.34;6361602;22;9341;-74
2023/08/09 04:16:44;;;;;;;;;2.00;0.75;;;;;-146.67;100.00;57155.34;6360281;22;8835;-74
2023/08/09 04:19:10;;;;;;;;;2.50;1.25;;;;;-146.67;100.00;57155.34;6361965;22;9759;-74
2023/08/09 04:21:35;;;;;;;;;2.00;0.75;;;;;-146.67;100.00;57155.34;6359625;22;8772;-74
2023/08/09 04:24:00;;;;;;;;;1.50;1.00;;;;;-146.67;100.00;57155.34;6362368;22;8864;-74
2023/08/09 04:26:27;;;;;;;;;1.00;1.00;;;;;-146.67;100.00;57155.34;6361504;22;8737;-75
2023/08/09 04:28:52;;;;;;;;;2.00;1.00;;;;;-146.67;100.00;57155.34;6361831;22;8689;-74
2023/08/09 04:31:17;;;;;;;;;1.75;1.00;;;;;-146.67;100.00;57155.34;6362158;22;9500;-74
2023/08/09 04:33:49;;;;;;;;;1.67;0.00;;;;;-146.67;100.00;57155.34;6362645;22;8836;-74
2023/08/09 04:36:15;;;;;;;;;1.00;1.00;;;;;-146.67;100.00;57155.34;6362174;22;8698;-74
2023/08/09 04:38:41;;;;;;;;;1.00;1.00;;;;;-146.67;100.00;57155.34;6362288;22;9760;-74
2023/08/09 04:41:06;;;;;;;;;1.00;1.00;;;;;-146.67;100.00;57155.34;6386309;22;9522;-74
2023/08/09 04:43:32;;;;;;;;;1.00;0.00;;;;;-146.67;100.00;57155.34;6359690;22;8922;-74
2023/08/09 04:45:57;;;;;;;;;1.50;1.50;;;;;-146.67;100.00;57155.34;6362423;22;8764;-74
2023/08/09 04:48:23;;;;;;;;;1.75;0.75;;;;;-146.67;100.00;57155.34;6362081;22;8818;-74
2023/08/09 04:50:49;;;;;;;;;1.25;1.00;;;;;-146.67;100.00;57155.34;6361735;22;8735;-74
2023/08/09 04:53:14;;;;;;;;;1.00;1.00;;;;;-146.67;100.00;57155.34;6359880;22;9662;-74
2023/08/09 04:55:40;;;;;;;;;0.75;0.50;;;;;-146.67;100.00;57155.34;6359914;22;8741;-74
2023/08/09 04:58:05;;;;;;;;;0.00;0.00;;;;;-146.67;100.00;57155.34;6362106;22;8867;-74
2023/08/09 05:00:31;;;;;;;;;0.50;0.00;;;;;-146.67;100.00;57155.34;6361900;22;8749;-73
2023/08/09 05:02:56;;;;;;;;;2.00;0.00;;;;;-146.67;100.00;57155.34;6362170;22;8791;-74
2023/08/09 05:05:21;;;;;;;;;0.00;0.00;;;;;-146.67;100.00;57155.34;6386758;22;8855;-74
2023/08/09 05:07:47;;;;;;;;;0.00;0.00;;;;;-146.67;100.00;57155.34;6361960;22;8743;-74
2023/08/09 05:10:12;;;;;;;;;1.00;0.00;;;;;-146.67;100.00;57155.34;6361488;22;8755;-74
2023/08/09 05:12:38;;;;;;;;;0.00;0.00;;;;;-146.67;100.00;57155.34;6361458;22;8748;-77
2023/08/09 05:15:03;;;;;;;;;0.00;0.00;;;;;-146.67;100.00;57155.34;6386921;22;8745;-76
2023/08/09 05:17:29;;;;;;;;;0.00;0.00;;;;;-146.67;100.00;57155.34;6361999;22;8748;-76
2023/08/09 05:19:55;;;;;;;;;0.00;0.00;;;;;-146.67;100.00;57155.34;6359529;22;8759;-77
2023/08/09 05:22:21;;;;;;;;;0.00;0.00;;;;;-146.67;100.00;57155.34;6359772;22;8749;-77
2023/08/09 05:24:46;;;;;;;;;0.00;0.00;;;;;-146.67;100.00;57155.34;6361208;22;8678;-77
2023/08/09 05:27:12;;;;;;;;;0.00;0.00;;;;;-146.67;100.00;57155.34;6362091;22;9590;-76
2023/08/09 05:29:37;;;;;;;;;0.00;0.00;;;;;-146.67;100.00;57155.34;6359984;22;8757;-75
2023/08/09 05:32:03;;;;;;;;;1.00;0.00;;;;;-146.67;100.00;57155.34;6386270;22;8771;-77
2023/08/09 05:34:29;;;;;;;;;0.00;0.00;;;;;-146.67;100.00;57155.34;6362130;22;8682;-77
2023/08/09 05:36:55;;;;;;;;;0.00;0.00;;;;;-146.67;100.00;57155.34;6361642;22;9676;-76
2023/08/09 05:39:22;;;;;;;;;0.00;0.00;;;;;-146.67;100.00;57155.34;6385597;22;9522;-76
2023/08/09 05:41:47;;;;;;;;;0.00;0.00;;;;;-146.67;100.00;57155.34;6361241;22;8696;-74
2023/08/09 05:44:12;;;;;;;;;0.00;0.00;;;;;-146.67;100.00;57155.34;6386171;22;9622;-74
2023/08/09 05:46:38;;;;;;;;;0.00;0.00;;;;;-146.67;100.00;57155.34;6361516;22;8779;-73
2023/08/09 05:49:03;;;;;;;;;0.00;0.00;;;;;-146.67;100.00;57155.34;6359828;22;8741;-76
2023/08/09 05:51:31;;;;;;;;;0.00;0.00;;;;;-146.67;100.00;57155.34;6359361;22;8802;-76
2023/08/09 05:53:57;;;;;;;;;0.00;0.00;;;;;-146.67;100.00;57155.34;6361508;22;9709;-76
2023/08/09 05:56:22;;;;;;;;;0.00;0.00;;;;;-146.67;100.00;57155.34;6361379;22;9642;-76
2023/08/09 05:58:48;;;;;;;;;0.00;0.00;;;;;-146.67;100.00;57155.34;6361359;22;8747;-76
2023/08/09 06:01:14;;;;;;;;;0.75;0.00;;;;;-146.67;100.00;57155.34;6361318;22;8854;-76
2023/08/09 06:03:39;;;;;;;;;0.75;0.00;;;;;-146.67;100.00;57155.34;6361259;22;9020;-76
2023/08/09 06:06:09;;;;;;;;;0.00;0.00;;;;;-146.67;100.00;57155.34;6362254;22;8772;-76
2023/08/09 06:08:35;;;;;;;;;0.00;0.00;;;;;-146.67;100.00;57155.34;6360955;22;8753;-76
2023/08/09 06:11:01;;;;;;;;;0.00;0.00;;;;;-146.67;100.00;57155.34;6387218;22;9198;-76
2023/08/09 06:13:26;;;;;;;;;0.00;0.00;;;;;-146.67;100.00;57155.34;6387732;22;9522;-76
2023/08/09 06:15:52;;;;;;;;;0.50;0.50;;;;;-146.67;100.00;57155.34;6362961;22;8766;-76
2023/08/09 06:18:17;;;;;;;;;0.75;0.75;;;;;-146.67;100.00;57155.34;6361232;22;8733;-74
2023/08/09 06:20:43;;;;;;;;;2.33;1.00;;;;;-146.67;100.00;57155.34;6362324;22;8771;-75
2023/08/09 06:23:09;;;;;;;;;0.00;0.00;;;;;-146.67;100.00;57155.34;6360804;22;9266;-75
2023/08/09 06:25:35;;;;;;;;;3.00;1.00;;;;;-146.67;100.00;57155.34;6362913;22;8705;-75
2023/08/09 06:28:00;;;;;;;;;3.00;0.00;;;;;-146.67;100.00;57155.34;6363089;22;9554;-75
2023/08/09 06:30:26;;;;;;;;;4.25;1.00;;;;;-146.67;100.00;57155.34;6387698;22;8732;-75
2023/08/09 06:32:51;;;;;;;;;1.00;1.00;;;;;-146.67;100.00;57155.34;6363087;22;8752;-76
2023/08/09 06:35:17;;;;;;;;;0.00;0.00;;;;;-146.67;100.00;57155.34;6363548;22;8749;-76
2023/08/09 06:37:42;;;;;;;;;1.00;1.00;;;;;-146.67;100.00;57155.34;6362701;22;8757;-73
2023/08/09 06:40:09;;;;;;;;;1.00;1.00;;;;;-146.67;100.00;57155.34;6362437;22;8761;-74
2023/08/09 06:42:34;;;;;;;;;0.00;0.00;;;;;-146.67;100.00;57155.34;6363357;22;8705;-73
2023/08/09 06:45:00;;;;;;;;;0.50;0.50;;;;;-146.67;100.00;57155.34;6362766;22;9670;-74
2023/08/09 06:47:26;;;;;;;;;0.00;0.00;;;;;-146.67;100.00;57155.34;6363464;22;8759;-74
2023/08/09 06:49:51;;;;;;;;;0.00;0.00;;;;;-146.67;100.00;57155.34;6362496;22;9514;-76
2023/08/09 06:52:16;;;;;;;;;0.00;0.00;;;;;-146.67;100.00;57155.34;6387314;22;8752;-76
2023/08/09 06:54:42;;;;;;;;;0.75;0.75;;;;;-146.67;100.00;57155.34;6363013;22;8801;-75
2023/08/09 06:57:07;;;;;;;;;1.00;1.00;;;;;-146.67;100.00;57155.34;6363093;22;8721;-75
2023/08/09 06:59:34;;;;;;;;;1.00;1.00;;;;;-146.67;100.00;57155.34;6362666;22;8832;-73
2023/08/09 07:01:59;;;;;;;;;1.00;1.00;;;;;-146.67;100.00;57155.34;6362959;22;8721;-78
2023/08/09 07:04:26;;;;;;;;;0.00;0.00;;;;;-146.67;100.00;57155.34;6387617;22;9901;-77
2023/08/09 07:06:54;;;;;;;;;1.25;1.00;;;;;-146.67;100.00;57155.34;6360542;22;8681;-73
2023/08/09 07:09:20;;;;;;;;;0.75;0.00;;;;;-146.67;100.00;57155.34;6359007;22;9694;-75
2023/08/09 07:11:48;;;;;;;;;0.25;0.25;;;;;-146.67;100.00;57155.34;6384123;22;9692;-75
2023/08/09 07:14:13;;;;;;;;;0.00;0.00;;;;;-146.67;100.00;57155.34;6359252;22;9970;-75
2023/08/09 07:16:39;;;;;;;;;1.00;1.00;;;;;-146.67;100.00;57155.34;6361544;22;9394;-75
2023/08/09 07:19:04;;;;;;;;;0.00;0.00;;;;;-146.67;100.00;57155.34;6361252;22;8737;-75
2023/08/09 07:21:29;;;;;;;;;1.00;1.00;;;;;-146.67;100.00;57155.34;6360535;22;8867;-75
2023/08/09 07:23:55;;;;;;;;;0.00;0.00;;;;;-146.67;100.00;57155.34;6362256;22;8776;-75
2023/08/09 07:26:20;;;;;;;;;1.00;1.00;;;;;-146.67;100.00;57155.34;6361035;22;8733;-75
2023/08/09 07:28:45;;;;;;;;;1.50;1.50;;;;;-146.67;100.00;57155.34;6359713;22;8741;-75
2023/08/09 07:31:21;;;;;;;;;1.00;1.00;;;;;-146.67;100.00;57155.34;6360933;22;8759;-75
2023/08/09 07:33:47;;;;;;;;;2.50;1.00;;;;;-146.67;100.00;57155.34;6360081;22;10182;-75
2023/08/09 07:36:12;;;;;;;;;2.00;1.25;;;;;-146.67;100.00;57155.34;6385480;22;9528;-75
2023/08/09 07:38:38;;;;;;;;;1.33;1.33;;;;;-146.67;100.00;57155.34;6359182;22;9534;-74
2023/08/09 07:41:04;;;;;;;;;0.00;0.00;;;;;-146.67;100.00;57155.34;6361237;22;8736;-75
2023/08/09 07:43:30;;;;;;;;;0.33;0.33;;;;;-146.67;100.00;57155.34;6361540;22;8756;-75
2023/08/09 07:46:03;;;;;;;;;1.00;1.00;;;;;-146.67;100.00;57155.34;6360036;22;8688;-75
2023/08/09 07:48:29;;;;;;;;;0.67;0.00;;;;;-146.67;100.00;57155.34;6361107;22;10374;-75
2023/08/09 07:50:55;;;;;;;;;0.67;0.67;;;;;-146.67;100.00;57155.34;6381305;22;9294;-77
2023/08/09 07:53:21;;;;;;;;;1.00;1.00;;;;;-146.67;100.00;57155.34;6359114;22;10143;-76
2023/08/09 07:55:46;;;;;;;;;1.00;1.00;;;;;-146.67;100.00;57155.34;6385543;22;9318;-75
2023/08/09 07:58:14;;;;;;;;;2.67;2.00;;;;;-146.67;100.00;57155.34;6361180;22;8729;-75
2023/08/09 08:00:41;;;;;;;;;2.00;1.00;;;;;-146.67;100.00;57155.34;6385412;22;8737;-74
2023/08/09 08:03:09;;;;;;;;;2.00;1.33;;;;;-146.67;100.00;57155.34;6361465;22;9596;-74
2023/08/09 08:05:36;;;;;;;;;2.33;0.67;;;;;-146.67;100.00;57155.34;6360780;22;9359;-75
2023/08/09 08:08:02;;;;;;;;;2.33;0.67;;;;;-146.67;100.00;57155.34;6359003;22;9437;-74
2023/08/09 08:10:28;;;;;;;;;1.67;0.00;;;;;-146.67;100.00;57155.34;6361088;22;9268;-74
2023/08/09 08:12:54;;;;;;;;;2.00;1.00;;;;;-146.67;100.00;57155.34;6386042;22;9849;-74
2023/08/09 08:15:20;;;;;;;;;3.33;0.00;;;;;-146.67;100.00;57155.34;6361394;22;8733;-74
2023/08/09 08:17:46;;;;;;;;;3.00;0.67;;;;;-146.67;100.00;57155.34;6386182;22;8768;-72
2023/08/09 08:20:15;;;;;;;;;0.00;0.00;;;;;-146.67;100.00;57155.34;6384720;22;9158;-73
2023/08/09 08:22:47;;;;;;;;;0.00;0.00;;;;;-146.67;100.00;57155.34;6361263;22;9336;-73
2023/08/09 08:25:13;;;;;;;;;0.33;0.33;;;;;-146.67;100.00;57155.34;6360853;22;9120;-81
2023/08/09 08:27:42;;;;;;;;;0.67;0.67;;;;;-146.67;100.00;57155.34;6360823;22;9101;-80
2023/08/09 08:30:08;;;;;;;;;0.00;0.00;;;;;-146.67;100.00;57155.34;6358913;22;9094;-78
2023/08/09 08:32:35;;;;;;;;;0.00;0.00;;;;;-146.67;100.00;57155.34;6359487;22;10815;-79
2023/08/09 08:35:02;;;;;;;;;3.00;1.00;;;;;-146.67;100.00;57155.34;6359543;22;9105;-79
2023/08/09 08:37:29;;;;;;;;;0.67;0.67;;;;;-146.67;100.00;57155.34;6359368;22;9212;-79
2023/08/09 08:39:55;;;;;;;;;0.00;0.00;;;;;-146.67;100.00;57155.34;6358729;22;9298;-81
2023/08/09 08:42:21;;;;;;;;;0.00;0.00;;;;;-146.67;100.00;57155.34;6358589;22;9924;-74
2023/08/09 08:44:47;;;;;;;;;1.00;0.00;;;;;-146.67;100.00;57155.34;6359803;22;8862;-74
2023/08/09 08:47:13;;;;;;;;;0.00;0.00;;;;;-146.67;100.00;57155.34;6359360;22;9077;-74
2023/08/09 08:49:48;;;;;;;;;2.00;1.00;;;;;-146.67;100.00;57155.34;6359882;22;8775;-73
2023/08/09 08:52:16;;;;;;;;;0.67;0.00;;;;;-146.67;100.00;57155.34;6360998;22;9193;-75
2023/08/09 08:54:45;;;;;;;;;0.00;0.00;;;;;-146.67;100.00;57155.34;6360875;22;9071;-73
2023/08/09 08:57:12;;;;;;;;;0.67;0.67;;;;;-146.67;100.00;57155.34;6380215;22;9026;-73
2023/08/09 08:59:40;;;;;;;;;2.00;1.00;;;;;-146.67;100.00;57155.34;6360939;22;8903;-74
2023/08/09 09:02:06;;;;;;;;;50.75;42.25;;;;;-146.67;100.00;57155.34;6359893;22;9035;-74
2023/08/09 09:04:32;;;;;;;;;2.67;1.00;;;;;-146.67;100.00;57155.34;6358715;22;11448;-74
2023/08/09 09:06:57;;;;;;;;;4.67;4.00;;;;;-146.67;100.00;57155.34;6360392;22;11384;-73
2023/08/09 09:09:22;;;;;;;;;0.67;0.67;;;;;-146.67;100.00;57155.34;6361375;22;8866;-75
2023/08/09 09:11:51;;;;;;;;;0.67;0.67;;;;;-146.67;100.00;57155.34;6360447;22;8741;-75
2023/08/09 09:14:17;;;;;;;;;2.00;0.00;;;;;-146.67;100.00;57155.34;6361388;22;8737;-76
2023/08/09 09:16:44;;;;;;;;;1.00;1.00;;;;;-146.67;100.00;57155.34;6361123;22;9057;-74
2023/08/09 09:19:14;;;;;;;;;0.33;0.33;;;;;-146.67;100.00;57155.34;6384914;22;10152;-75
2023/08/09 09:21:41;;;;;;;;;0.67;0.67;;;;;-146.67;100.00;57155.34;6360335;22;9265;-76
2023/08/09 09:24:09;;;;;;;;;0.00;0.00;;;;;-146.67;100.00;57155.34;6358205;22;9056;-75
2023/08/09 09:26:37;;;;;;;;;0.00;0.00;;;;;-146.67;100.00;57155.34;6360109;22;8828;-74
2023/08/09 09:29:07;;;;;;;;;1.00;1.00;;;;;-146.67;100.00;57155.34;6360947;22;8951;-75
2023/08/09 09:31:37;;;;;;;;;0.00;0.00;;;;;-146.67;100.00;57155.34;6360712;22;8802;-74
2023/08/09 09:34:03;;;;;;;;;2.00;0.33;;;;;-146.67;100.00;57155.34;6361279;22;8875;-75
2023/08/09 09:36:29;;;;;;;;;0.00;0.00;;;;;-146.67;100.00;57155.34;6361246;22;9896;-75
2023/08/09 09:38:55;;;;;;;;;0.00;0.00;;;;;-146.67;100.00;57155.34;6359082;22;8792;-74
2023/08/09 09:41:22;;;;;;;;;0.67;0.00;;;;;-146.67;100.00;57155.34;6360895;22;8703;-74
2023/08/09 09:43:50;;;;;;;;;1.00;1.00;;;;;-146.67;100.00;57155.34;6362611;22;8994;-74
2023/08/09 09:46:23;;;;;;;;;1.00;1.00;;;;;-146.67;100.00;57155.34;6361611;22;8899;-74
2023/08/09 09:49:03;;;;;;;;;0.00;0.00;;;;;-146.67;100.00;57155.34;6360521;22;8836;-74
2023/08/09 09:51:29;;;;;;;;;0.00;0.00;;;;;-146.67;100.00;57155.34;6360042;22;9936;-74
2023/08/09 09:53:55;;;;;;;;;1.00;1.00;;;;;-146.67;100.00;57155.34;6360820;22;9047;-74
2023/08/09 09:56:20;;;;;;;;;1.00;1.00;;;;;-146.67;100.00;57155.34;6361758;22;9362;-75
2023/08/09 09:58:47;;;;;;;;;1.00;1.00;;;;;-146.67;100.00;57155.34;6360939;22;8836;-74
2023/08/09 10:01:19;;;;;;;;;0.75;0.50;;;;;-146.67;100.00;57155.34;6362148;22;8665;-74
2023/08/09 10:03:45;;;;;;;;;0.50;0.50;;;;;-146.67;100.00;57155.34;6362625;22;8714;-74
2023/08/09 10:06:22;;;;;;;;;1.00;1.00;;;;;-146.67;100.00;57155.34;6386148;22;8730;-75
2023/08/09 10:08:51;;;;;;;;;0.00;0.00;;;;;-146.67;100.00;57155.34;6359793;22;8755;-77
2023/08/09 10:11:19;;;;;;;;;0.33;0.33;;;;;-146.67;100.00;57155.34;6358701;22;10865;-76
2023/08/09 10:13:46;;;;;;;;;0.00;0.00;;;;;-146.67;100.00;57155.34;6360548;22;9127;-77
2023/08/09 10:16:14;;;;;;;;;0.00;0.00;;;;;-146.67;100.00;57155.34;6359308;22;8915;-77
2023/08/09 10:18:48;;;;;;;;;1.33;1.33;;;;;-146.67;100.00;57155.34;6362612;22;8943;-77
2023/08/09 10:21:16;;;;;;;;;3.00;1.00;;;;;-146.67;100.00;57155.34;6360678;22;9091;-76
2023/08/09 10:24:15;;;;;;;;;0.00;0.00;;;;;-146.67;100.00;57155.34;6362608;22;8877;-77
2023/08/09 10:26:44;;;;;;;;;2.00;2.00;;;;;-146.67;100.00;57155.34;6360169;22;8756;-74
2023/08/09 10:29:18;;;;;;;;;1.33;0.33;;;;;-146.67;100.00;57155.34;6362771;22;8833;-74
2023/08/09 10:31:46;;;;;;;;;0.00;0.00;;;;;-146.67;100.00;57155.34;6362662;22;8914;-74
2023/08/09 10:34:13;;;;;;;;;2.00;0.67;;;;;-146.67;100.00;57155.34;6362581;22;8733;-74
2023/08/09 10:36:38;;;;;;;;;0.50;0.50;;;;;-146.67;100.00;57155.34;6386872;22;8828;-74
2023/08/09 10:39:15;;;;;;;;;1.33;0.67;;;;;-146.67;100.00;57155.34;6387250;22;8868;-77
2023/08/09 10:42:01;;;;;;;;;0.00;0.00;;;;;-146.67;100.00;57155.34;6362743;22;8717;-77
2023/08/09 10:44:37;;;;;;;;;2.67;0.33;;;;;-146.67;100.00;57155.34;6362015;22;8842;-76
2023/08/09 10:47:06;;;;;;;;;0.67;0.67;;;;;-146.67;100.00;57155.34;6363020;22;8891;-77
2023/08/09 10:49:53;;;;;;;;;1.67;1.00;;;;;-146.67;100.00;57155.34;6361387;22;8846;-77
2023/08/09 10:52:28;;;;;;;;;2.00;0.67;;;;;-146.67;100.00;57155.34;6362454;22;8874;-76
2023/08/09 10:55:18;;;;;;;;;0.00;0.00;;;;;-146.67;100.00;57155.34;6359782;22;9081;-77
2023/08/09 10:57:47;;;;;;;;;1.00;1.00;;;;;-146.67;100.00;57155.34;6386728;22;8872;-77
2023/08/09 11:00:13;;;;;;;;;0.00;0.00;;;;;-146.67;100.00;57155.34;6360179;22;8961;-77
2023/08/09 11:02:55;;;;;;;;;3.33;1.00;;;;;-146.67;100.00;57155.34;6361958;22;9071;-77
2023/08/09 11:05:21;;;;;;;;;1.00;1.00;;;;;-146.67;100.00;57155.34;6360526;22;8781;-76
2023/08/09 11:07:58;;;;;;;;;1.00;1.00;;;;;-146.67;100.00;57155.34;6360101;22;8850;-80
2023/08/09 11:10:30;;;;;;;;;2.00;2.00;;;;;-146.67;100.00;57155.34;6357537;22;9019;-76
2023/08/09 11:12:56;;;;;;;;;1.33;1.33;;;;;-146.67;100.00;57155.34;6385380;22;11157;-75
2023/08/09 11:15:21;;;;;;;;;2.67;1.33;;;;;-146.67;100.00;57155.34;6361516;22;8897;-75
2023/08/09 11:17:50;;;;;;;;;0.67;0.67;;;;;-146.67;100.00;57155.34;6360623;22;8740;-77